sensor_id;sensor_type;location;lat;lon;timestamp;P1;durP1;ratioP1;P2;durP2;ratioP2
31262;SDS011;17892;52.080;9.006;2022-08-05T00:00:34;4.20;;;2.05;;
31262;SDS011;17892;52.080;9.006;2022-08-05T00:03:00;2.05;;;1.42;;
31262;SDS011;17892;52.080;9.006;2022-08-05T00:05:26;3.03;;;1.40;;
31262;SDS011;17892;52.080;9.006;2022-08-05T00:07:52;4.93;;;1.90;;
31262;SDS011;17892;52.080;9.006;2022-08-05T00:10:17;4.32;;;1.90;;
31262;SDS011;17892;52.080;9.006;2022-08-05T00:12:43;2.38;;;1.52;;
31262;SDS011;17892;52.080;9.006;2022-08-05T00:15:09;7.90;;;1.83;;
31262;SDS011;17892;52.080;9.006;2022-08-05T00:17:35;5.97;;;1.88;;
31262;SDS011;17892;52.080;9.006;2022-08-05T00:20:00;4.07;;;1.80;;
31262;SDS011;17892;52.080;9.006;2022-08-05T00:22:26;4.68;;;1.70;;
31262;SDS011;17892;52.080;9.006;2022-08-05T00:24:52;7.18;;;2.40;;
31262;SDS011;17892;52.080;9.006;2022-08-05T00:27:17;4.35;;;1.65;;
31262;SDS011;17892;52.080;9.006;2022-08-05T00:29:43;4.00;;;2.47;;
31262;SDS011;17892;52.080;9.006;2022-08-05T00:32:09;5.90;;;2.10;;
31262;SDS011;17892;52.080;9.006;2022-08-05T00:34:37;3.72;;;2.22;;
31262;SDS011;17892;52.080;9.006;2022-08-05T00:37:04;3.55;;;2.10;;
31262;SDS011;17892;52.080;9.006;2022-08-05T00:39:30;4.97;;;1.83;;
31262;SDS011;17892;52.080;9.006;2022-08-05T00:41:56;5.68;;;2.05;;
31262;SDS011;17892;52.080;9.006;2022-08-05T00:44:22;2.67;;;1.65;;
31262;SDS011;17892;52.080;9.006;2022-08-05T00:46:48;4.78;;;2.10;;
31262;SDS011;17892;52.080;9.006;2022-08-05T00:49:14;6.20;;;2.05;;
31262;SDS011;17892;52.080;9.006;2022-08-05T00:51:43;5.85;;;2.55;;
31262;SDS011;17892;52.080;9.006;2022-08-05T00:54:12;8.35;;;2.88;;
31262;SDS011;17892;52.080;9.006;2022-08-05T00:56:38;7.57;;;2.53;;
31262;SDS011;17892;52.080;9.006;2022-08-05T00:59:04;8.60;;;2.42;;
31262;SDS011;17892;52.080;9.006;2022-08-05T01:01:31;7.20;;;2.30;;
31262;SDS011;17892;52.080;9.006;2022-08-05T01:03:57;4.28;;;1.85;;
31262;SDS011;17892;52.080;9.006;2022-08-05T01:06:22;3.05;;;1.80;;
31262;SDS011;17892;52.080;9.006;2022-08-05T01:08:48;7.85;;;2.45;;
31262;SDS011;17892;52.080;9.006;2022-08-05T01:11:15;5.32;;;2.17;;
31262;SDS011;17892;52.080;9.006;2022-08-05T01:13:47;4.57;;;2.10;;
31262;SDS011;17892;52.080;9.006;2022-08-05T01:16:32;8.55;;;2.53;;
31262;SDS011;17892;52.080;9.006;2022-08-05T01:19:19;9.23;;;2.70;;
31262;SDS011;17892;52.080;9.006;2022-08-05T01:22:22;4.40;;;2.40;;
31262;SDS011;17892;52.080;9.006;2022-08-05T01:34:08;5.93;;;2.35;;
31262;SDS011;17892;52.080;9.006;2022-08-05T01:37:36;6.30;;;2.40;;
31262;SDS011;17892;52.080;9.006;2022-08-05T01:39:58;6.60;;;3.33;;
31262;SDS011;17892;52.080;9.006;2022-08-05T01:42:25;7.53;;;3.72;;
31262;SDS011;17892;52.080;9.006;2022-08-05T01:44:57;6.07;;;3.30;;
31262;SDS011;17892;52.080;9.006;2022-08-05T01:47:25;5.80;;;2.88;;
31262;SDS011;17892;52.080;9.006;2022-08-05T01:49:52;7.03;;;2.70;;
31262;SDS011;17892;52.080;9.006;2022-08-05T01:52:19;10.07;;;4.00;;
31262;SDS011;17892;52.080;9.006;2022-08-05T01:54:56;4.70;;;3.08;;
31262;SDS011;17892;52.080;9.006;2022-08-05T01:57:25;8.00;;;3.35;;
31262;SDS011;17892;52.080;9.006;2022-08-05T02:00:04;7.72;;;3.50;;
31262;SDS011;17892;52.080;9.006;2022-08-05T02:02:36;9.07;;;2.25;;
31262;SDS011;17892;52.080;9.006;2022-08-05T02:07:36;3.80;;;1.73;;
31262;SDS011;17892;52.080;9.006;2022-08-05T02:10:02;3.72;;;2.17;;
31262;SDS011;17892;52.080;9.006;2022-08-05T02:15:02;4.57;;;1.75;;
31262;SDS011;17892;52.080;9.006;2022-08-05T02:17:44;3.05;;;1.40;;
31262;SDS011;17892;52.080;9.006;2022-08-05T02:20:18;3.72;;;1.70;;
31262;SDS011;17892;52.080;9.006;2022-08-05T02:22:49;3.67;;;1.73;;
31262;SDS011;17892;52.080;9.006;2022-08-05T02:25:27;3.67;;;1.45;;
31262;SDS011;17892;52.080;9.006;2022-08-05T02:27:56;2.85;;;1.40;;
31262;SDS011;17892;52.080;9.006;2022-08-05T02:30:24;1.95;;;0.93;;
31262;SDS011;17892;52.080;9.006;2022-08-05T02:33:02;1.92;;;0.90;;
31262;SDS011;17892;52.080;9.006;2022-08-05T02:35:30;1.90;;;0.80;;
31262;SDS011;17892;52.080;9.006;2022-08-05T02:37:58;3.25;;;1.38;;
31262;SDS011;17892;52.080;9.006;2022-08-05T02:40:26;3.15;;;1.27;;
31262;SDS011;17892;52.080;9.006;2022-08-05T02:42:52;2.90;;;0.98;;
31262;SDS011;17892;52.080;9.006;2022-08-05T02:45:20;3.60;;;1.42;;
31262;SDS011;17892;52.080;9.006;2022-08-05T02:47:48;2.50;;;1.13;;
31262;SDS011;17892;52.080;9.006;2022-08-05T02:50:16;4.55;;;1.17;;
31262;SDS011;17892;52.080;9.006;2022-08-05T02:52:43;1.73;;;0.85;;
31262;SDS011;17892;52.080;9.006;2022-08-05T02:55:09;2.03;;;0.73;;
31262;SDS011;17892;52.080;9.006;2022-08-05T02:57:37;3.35;;;1.05;;
31262;SDS011;17892;52.080;9.006;2022-08-05T03:00:04;1.67;;;0.73;;
31262;SDS011;17892;52.080;9.006;2022-08-05T03:02:33;3.10;;;1.02;;
31262;SDS011;17892;52.080;9.006;2022-08-05T03:05:01;5.90;;;1.95;;
31262;SDS011;17892;52.080;9.006;2022-08-05T03:07:29;3.33;;;1.35;;
31262;SDS011;17892;52.080;9.006;2022-08-05T03:09:55;2.63;;;1.08;;
31262;SDS011;17892;52.080;9.006;2022-08-05T03:12:55;5.97;;;1.27;;
31262;SDS011;17892;52.080;9.006;2022-08-05T03:15:13;3.43;;;1.20;;
31262;SDS011;17892;52.080;9.006;2022-08-05T03:17:39;1.95;;;0.95;;
31262;SDS011;17892;52.080;9.006;2022-08-05T03:20:05;2.40;;;1.00;;
31262;SDS011;17892;52.080;9.006;2022-08-05T03:22:32;3.70;;;1.65;;
31262;SDS011;17892;52.080;9.006;2022-08-05T03:24:57;1.95;;;1.15;;
31262;SDS011;17892;52.080;9.006;2022-08-05T03:27:23;7.53;;;1.35;;
31262;SDS011;17892;52.080;9.006;2022-08-05T03:29:50;2.03;;;1.00;;
31262;SDS011;17892;52.080;9.006;2022-08-05T03:32:16;3.85;;;2.20;;
31262;SDS011;17892;52.080;9.006;2022-08-05T03:34:43;4.57;;;0.95;;
31262;SDS011;17892;52.080;9.006;2022-08-05T03:37:10;3.58;;;1.63;;
31262;SDS011;17892;52.080;9.006;2022-08-05T03:39:36;2.35;;;1.27;;
31262;SDS011;17892;52.080;9.006;2022-08-05T03:42:02;4.68;;;2.33;;
31262;SDS011;17892;52.080;9.006;2022-08-05T03:44:28;4.85;;;2.58;;
31262;SDS011;17892;52.080;9.006;2022-08-05T03:46:54;4.32;;;2.38;;
31262;SDS011;17892;52.080;9.006;2022-08-05T03:49:20;6.03;;;2.50;;
31262;SDS011;17892;52.080;9.006;2022-08-05T03:51:54;4.20;;;2.35;;
31262;SDS011;17892;52.080;9.006;2022-08-05T03:57:00;7.80;;;3.50;;
31262;SDS011;17892;52.080;9.006;2022-08-05T03:59:33;6.95;;;3.45;;
31262;SDS011;17892;52.080;9.006;2022-08-05T04:02:04;8.30;;;4.25;;
31262;SDS011;17892;52.080;9.006;2022-08-05T04:04:32;7.97;;;4.38;;
31262;SDS011;17892;52.080;9.006;2022-08-05T04:06:59;8.50;;;5.05;;
31262;SDS011;17892;52.080;9.006;2022-08-05T04:09:25;12.73;;;6.60;;
31262;SDS011;17892;52.080;9.006;2022-08-05T04:11:54;8.95;;;5.75;;
31262;SDS011;17892;52.080;9.006;2022-08-05T04:14:20;9.98;;;5.55;;
31262;SDS011;17892;52.080;9.006;2022-08-05T04:16:46;8.98;;;5.30;;
31262;SDS011;17892;52.080;9.006;2022-08-05T04:19:13;8.20;;;5.80;;
31262;SDS011;17892;52.080;9.006;2022-08-05T04:21:39;10.68;;;7.18;;
31262;SDS011;17892;52.080;9.006;2022-08-05T04:24:05;17.20;;;8.57;;
31262;SDS011;17892;52.080;9.006;2022-08-05T04:26:32;10.85;;;7.07;;
31262;SDS011;17892;52.080;9.006;2022-08-05T04:28:58;14.75;;;7.40;;
31262;SDS011;17892;52.080;9.006;2022-08-05T04:31:25;12.27;;;7.35;;
31262;SDS011;17892;52.080;9.006;2022-08-05T04:33:50;14.63;;;8.15;;
31262;SDS011;17892;52.080;9.006;2022-08-05T04:36:16;13.15;;;8.10;;
31262;SDS011;17892;52.080;9.006;2022-08-05T04:38:42;10.80;;;6.45;;
31262;SDS011;17892;52.080;9.006;2022-08-05T04:41:08;13.82;;;8.35;;
31262;SDS011;17892;52.080;9.006;2022-08-05T04:43:34;10.20;;;8.02;;
31262;SDS011;17892;52.080;9.006;2022-08-05T04:46:00;11.63;;;7.97;;
31262;SDS011;17892;52.080;9.006;2022-08-05T04:48:27;11.80;;;7.93;;
31262;SDS011;17892;52.080;9.006;2022-08-05T04:50:52;13.25;;;8.05;;
31262;SDS011;17892;52.080;9.006;2022-08-05T04:53:18;12.55;;;8.77;;
31262;SDS011;17892;52.080;9.006;2022-08-05T04:55:44;15.93;;;9.35;;
31262;SDS011;17892;52.080;9.006;2022-08-05T04:58:14;12.40;;;7.40;;
31262;SDS011;17892;52.080;9.006;2022-08-05T05:00:41;11.27;;;8.00;;
31262;SDS011;17892;52.080;9.006;2022-08-05T05:03:07;12.65;;;8.07;;
31262;SDS011;17892;52.080;9.006;2022-08-05T05:05:34;12.23;;;7.63;;
31262;SDS011;17892;52.080;9.006;2022-08-05T05:08:05;12.27;;;9.20;;
31262;SDS011;17892;52.080;9.006;2022-08-05T05:10:40;10.88;;;6.63;;
31262;SDS011;17892;52.080;9.006;2022-08-05T05:13:09;12.32;;;8.25;;
31262;SDS011;17892;52.080;9.006;2022-08-05T05:15:40;11.88;;;7.88;;
31262;SDS011;17892;52.080;9.006;2022-08-05T05:18:07;10.15;;;6.47;;
31262;SDS011;17892;52.080;9.006;2022-08-05T05:20:33;8.38;;;7.22;;
31262;SDS011;17892;52.080;9.006;2022-08-05T05:23:01;15.05;;;9.07;;
31262;SDS011;17892;52.080;9.006;2022-08-05T05:25:30;11.88;;;7.10;;
31262;SDS011;17892;52.080;9.006;2022-08-05T05:27:56;16.10;;;9.18;;
31262;SDS011;17892;52.080;9.006;2022-08-05T05:30:22;14.70;;;7.93;;
31262;SDS011;17892;52.080;9.006;2022-08-05T05:32:49;12.70;;;7.32;;
31262;SDS011;17892;52.080;9.006;2022-08-05T05:35:15;13.18;;;7.28;;
31262;SDS011;17892;52.080;9.006;2022-08-05T05:37:53;9.82;;;6.55;;
31262;SDS011;17892;52.080;9.006;2022-08-05T05:40:24;11.38;;;6.97;;
31262;SDS011;17892;52.080;9.006;2022-08-05T05:42:51;10.85;;;6.38;;
31262;SDS011;17892;52.080;9.006;2022-08-05T05:45:18;10.85;;;6.90;;
31262;SDS011;17892;52.080;9.006;2022-08-05T05:47:44;9.05;;;5.25;;
31262;SDS011;17892;52.080;9.006;2022-08-05T05:50:11;10.30;;;6.28;;
31262;SDS011;17892;52.080;9.006;2022-08-05T05:52:39;10.65;;;5.93;;
31262;SDS011;17892;52.080;9.006;2022-08-05T05:55:07;10.70;;;6.82;;
31262;SDS011;17892;52.080;9.006;2022-08-05T05:57:35;8.40;;;6.15;;
31262;SDS011;17892;52.080;9.006;2022-08-05T06:00:03;9.48;;;5.55;;
31262;SDS011;17892;52.080;9.006;2022-08-05T06:02:31;11.25;;;6.97;;
31262;SDS011;17892;52.080;9.006;2022-08-05T06:04:57;9.40;;;5.55;;
31262;SDS011;17892;52.080;9.006;2022-08-05T06:07:23;8.38;;;6.07;;
31262;SDS011;17892;52.080;9.006;2022-08-05T06:09:48;9.93;;;6.88;;
31262;SDS011;17892;52.080;9.006;2022-08-05T06:12:14;9.63;;;6.90;;
31262;SDS011;17892;52.080;9.006;2022-08-05T06:14:40;10.35;;;7.50;;
31262;SDS011;17892;52.080;9.006;2022-08-05T06:17:09;8.68;;;6.68;;
31262;SDS011;17892;52.080;9.006;2022-08-05T06:19:35;9.93;;;6.35;;
31262;SDS011;17892;52.080;9.006;2022-08-05T06:22:05;9.73;;;6.35;;
31262;SDS011;17892;52.080;9.006;2022-08-05T06:24:32;10.13;;;6.93;;
31262;SDS011;17892;52.080;9.006;2022-08-05T06:26:59;7.13;;;5.05;;
31262;SDS011;17892;52.080;9.006;2022-08-05T06:29:25;9.00;;;6.05;;
31262;SDS011;17892;52.080;9.006;2022-08-05T06:31:51;8.23;;;6.32;;
31262;SDS011;17892;52.080;9.006;2022-08-05T06:34:17;6.78;;;5.25;;
31262;SDS011;17892;52.080;9.006;2022-08-05T06:36:43;11.13;;;6.30;;
31262;SDS011;17892;52.080;9.006;2022-08-05T06:39:09;10.88;;;6.60;;
31262;SDS011;17892;52.080;9.006;2022-08-05T06:41:35;10.23;;;6.43;;
31262;SDS011;17892;52.080;9.006;2022-08-05T06:44:00;8.75;;;6.53;;
31262;SDS011;17892;52.080;9.006;2022-08-05T06:46:26;11.15;;;6.60;;
31262;SDS011;17892;52.080;9.006;2022-08-05T06:48:52;10.02;;;7.93;;
31262;SDS011;17892;52.080;9.006;2022-08-05T06:51:18;10.13;;;7.35;;
31262;SDS011;17892;52.080;9.006;2022-08-05T06:53:43;9.63;;;7.05;;
31262;SDS011;17892;52.080;9.006;2022-08-05T06:56:09;11.25;;;6.63;;
31262;SDS011;17892;52.080;9.006;2022-08-05T06:58:35;8.40;;;5.82;;
31262;SDS011;17892;52.080;9.006;2022-08-05T07:01:01;9.90;;;7.75;;
31262;SDS011;17892;52.080;9.006;2022-08-05T07:03:29;7.18;;;5.15;;
31262;SDS011;17892;52.080;9.006;2022-08-05T07:05:56;7.47;;;5.53;;
31262;SDS011;17892;52.080;9.006;2022-08-05T07:08:22;5.95;;;5.03;;
31262;SDS011;17892;52.080;9.006;2022-08-05T07:10:49;10.60;;;5.78;;
31262;SDS011;17892;52.080;9.006;2022-08-05T07:13:15;5.45;;;4.68;;
31262;SDS011;17892;52.080;9.006;2022-08-05T07:16:00;8.77;;;5.30;;
31262;SDS011;17892;52.080;9.006;2022-08-05T07:18:44;8.68;;;5.30;;
31262;SDS011;17892;52.080;9.006;2022-08-05T07:21:10;6.45;;;4.10;;
31262;SDS011;17892;52.080;9.006;2022-08-05T07:23:36;7.85;;;4.50;;
31262;SDS011;17892;52.080;9.006;2022-08-05T07:26:02;6.28;;;3.65;;
31262;SDS011;17892;52.080;9.006;2022-08-05T07:28:28;9.10;;;4.65;;
31262;SDS011;17892;52.080;9.006;2022-08-05T07:30:54;6.57;;;4.00;;
31262;SDS011;17892;52.080;9.006;2022-08-05T07:33:20;8.23;;;3.97;;
31262;SDS011;17892;52.080;9.006;2022-08-05T07:35:46;7.45;;;5.05;;
31262;SDS011;17892;52.080;9.006;2022-08-05T07:38:12;8.07;;;3.92;;
31262;SDS011;17892;52.080;9.006;2022-08-05T07:40:39;6.55;;;3.47;;
31262;SDS011;17892;52.080;9.006;2022-08-05T07:43:05;6.72;;;3.15;;
31262;SDS011;17892;52.080;9.006;2022-08-05T07:45:31;5.43;;;3.65;;
31262;SDS011;17892;52.080;9.006;2022-08-05T07:47:57;6.13;;;3.10;;
31262;SDS011;17892;52.080;9.006;2022-08-05T07:50:23;5.05;;;3.65;;
31262;SDS011;17892;52.080;9.006;2022-08-05T07:52:49;6.85;;;3.20;;
31262;SDS011;17892;52.080;9.006;2022-08-05T07:55:15;8.30;;;4.55;;
31262;SDS011;17892;52.080;9.006;2022-08-05T07:57:41;7.65;;;3.25;;
31262;SDS011;17892;52.080;9.006;2022-08-05T08:00:06;4.88;;;3.40;;
31262;SDS011;17892;52.080;9.006;2022-08-05T08:02:33;11.43;;;4.22;;
31262;SDS011;17892;52.080;9.006;2022-08-05T08:04:59;7.07;;;3.55;;
31262;SDS011;17892;52.080;9.006;2022-08-05T08:07:26;9.40;;;5.03;;
31262;SDS011;17892;52.080;9.006;2022-08-05T08:09:52;8.00;;;4.82;;
31262;SDS011;17892;52.080;9.006;2022-08-05T08:12:18;7.15;;;3.35;;
31262;SDS011;17892;52.080;9.006;2022-08-05T08:14:45;8.18;;;4.88;;
31262;SDS011;17892;52.080;9.006;2022-08-05T08:17:11;4.75;;;2.90;;
31262;SDS011;17892;52.080;9.006;2022-08-05T08:19:37;4.10;;;2.60;;
31262;SDS011;17892;52.080;9.006;2022-08-05T08:22:07;5.90;;;4.13;;
31262;SDS011;17892;52.080;9.006;2022-08-05T08:24:33;6.10;;;3.05;;
31262;SDS011;17892;52.080;9.006;2022-08-05T08:26:59;5.07;;;2.92;;
31262;SDS011;17892;52.080;9.006;2022-08-05T08:29:25;9.70;;;3.08;;
31262;SDS011;17892;52.080;9.006;2022-08-05T08:31:51;3.65;;;2.72;;
31262;SDS011;17892;52.080;9.006;2022-08-05T08:34:18;10.90;;;3.33;;
31262;SDS011;17892;52.080;9.006;2022-08-05T08:36:46;2.92;;;2.50;;
31262;SDS011;17892;52.080;9.006;2022-08-05T08:39:12;6.35;;;2.38;;
31262;SDS011;17892;52.080;9.006;2022-08-05T08:41:41;5.15;;;2.63;;
31262;SDS011;17892;52.080;9.006;2022-08-05T08:44:11;4.28;;;2.47;;
31262;SDS011;17892;52.080;9.006;2022-08-05T08:46:38;5.05;;;3.13;;
31262;SDS011;17892;52.080;9.006;2022-08-05T08:49:05;6.03;;;2.75;;
31262;SDS011;17892;52.080;9.006;2022-08-05T08:51:33;3.88;;;2.58;;
31262;SDS011;17892;52.080;9.006;2022-08-05T08:54:01;3.50;;;2.35;;
31262;SDS011;17892;52.080;9.006;2022-08-05T08:56:27;3.80;;;2.13;;
31262;SDS011;17892;52.080;9.006;2022-08-05T08:58:53;7.80;;;4.05;;
31262;SDS011;17892;52.080;9.006;2022-08-05T09:01:23;8.95;;;3.78;;
31262;SDS011;17892;52.080;9.006;2022-08-05T09:03:49;3.85;;;2.95;;
31262;SDS011;17892;52.080;9.006;2022-08-05T09:06:18;5.00;;;2.85;;
31262;SDS011;17892;52.080;9.006;2022-08-05T09:08:44;4.50;;;2.78;;
31262;SDS011;17892;52.080;9.006;2022-08-05T09:11:10;5.25;;;2.70;;
31262;SDS011;17892;52.080;9.006;2022-08-05T09:13:37;4.57;;;2.95;;
31262;SDS011;17892;52.080;9.006;2022-08-05T09:16:02;4.13;;;2.30;;
31262;SDS011;17892;52.080;9.006;2022-08-05T09:18:29;3.13;;;2.15;;
31262;SDS011;17892;52.080;9.006;2022-08-05T09:20:54;3.72;;;2.10;;
31262;SDS011;17892;52.080;9.006;2022-08-05T09:23:20;3.40;;;2.13;;
31262;SDS011;17892;52.080;9.006;2022-08-05T09:25:47;5.70;;;2.38;;
31262;SDS011;17892;52.080;9.006;2022-08-05T09:30:53;5.10;;;1.90;;
31262;SDS011;17892;52.080;9.006;2022-08-05T09:33:28;3.50;;;1.88;;
31262;SDS011;17892;52.080;9.006;2022-08-05T09:36:02;3.30;;;1.60;;
31262;SDS011;17892;52.080;9.006;2022-08-05T09:38:30;2.75;;;1.55;;
31262;SDS011;17892;52.080;9.006;2022-08-05T09:41:03;7.10;;;1.60;;
31262;SDS011;17892;52.080;9.006;2022-08-05T09:43:35;2.90;;;1.52;;
31262;SDS011;17892;52.080;9.006;2022-08-05T09:46:03;3.78;;;1.77;;
31262;SDS011;17892;52.080;9.006;2022-08-05T09:51:05;5.10;;;2.20;;
31262;SDS011;17892;52.080;9.006;2022-08-05T09:53:49;9.70;;;3.30;;
31262;SDS011;17892;52.080;9.006;2022-08-05T09:56:22;5.22;;;2.00;;
31262;SDS011;17892;52.080;9.006;2022-08-05T09:59:01;2.83;;;1.60;;
31262;SDS011;17892;52.080;9.006;2022-08-05T10:01:33;3.17;;;2.28;;
31262;SDS011;17892;52.080;9.006;2022-08-05T10:04:05;3.47;;;2.60;;
31262;SDS011;17892;52.080;9.006;2022-08-05T10:06:56;5.13;;;2.72;;
31262;SDS011;17892;52.080;9.006;2022-08-05T10:09:22;7.43;;;3.90;;
31262;SDS011;17892;52.080;9.006;2022-08-05T10:11:48;5.35;;;3.92;;
31262;SDS011;17892;52.080;9.006;2022-08-05T10:14:23;4.70;;;3.45;;
31262;SDS011;17892;52.080;9.006;2022-08-05T10:16:50;4.78;;;3.47;;
31262;SDS011;17892;52.080;9.006;2022-08-05T10:19:20;3.83;;;3.38;;
31262;SDS011;17892;52.080;9.006;2022-08-05T10:21:47;5.43;;;4.32;;
31262;SDS011;17892;52.080;9.006;2022-08-05T10:24:14;3.97;;;3.42;;
31262;SDS011;17892;52.080;9.006;2022-08-05T10:26:45;7.07;;;4.18;;
31262;SDS011;17892;52.080;9.006;2022-08-05T10:29:13;5.43;;;4.80;;
31262;SDS011;17892;52.080;9.006;2022-08-05T10:31:39;4.68;;;3.95;;
31262;SDS011;17892;52.080;9.006;2022-08-05T10:34:06;4.05;;;3.65;;
31262;SDS011;17892;52.080;9.006;2022-08-05T10:36:34;4.78;;;3.65;;
31262;SDS011;17892;52.080;9.006;2022-08-05T10:39:13;4.45;;;2.60;;
31262;SDS011;17892;52.080;9.006;2022-08-05T10:41:52;5.60;;;3.28;;
31262;SDS011;17892;52.080;9.006;2022-08-05T10:44:27;6.20;;;4.20;;
31262;SDS011;17892;52.080;9.006;2022-08-05T10:46:55;7.03;;;3.33;;
31262;SDS011;17892;52.080;9.006;2022-08-05T10:49:22;4.70;;;3.25;;
31262;SDS011;17892;52.080;9.006;2022-08-05T10:51:51;4.82;;;3.53;;
31262;SDS011;17892;52.080;9.006;2022-08-05T10:54:22;4.85;;;3.40;;
31262;SDS011;17892;52.080;9.006;2022-08-05T10:56:50;3.85;;;2.78;;
31262;SDS011;17892;52.080;9.006;2022-08-05T10:59:25;3.63;;;2.47;;
31262;SDS011;17892;52.080;9.006;2022-08-05T11:02:04;5.15;;;3.70;;
31262;SDS011;17892;52.080;9.006;2022-08-05T11:04:42;6.30;;;2.67;;
31262;SDS011;17892;52.080;9.006;2022-08-05T11:07:09;6.38;;;4.25;;
31262;SDS011;17892;52.080;9.006;2022-08-05T11:09:42;7.50;;;4.20;;
31262;SDS011;17892;52.080;9.006;2022-08-05T11:15:06;5.43;;;2.83;;
31262;SDS011;17892;52.080;9.006;2022-08-05T11:17:34;3.85;;;2.58;;
31262;SDS011;17892;52.080;9.006;2022-08-05T11:20:02;4.97;;;2.78;;
31262;SDS011;17892;52.080;9.006;2022-08-05T11:22:52;4.03;;;2.58;;
31262;SDS011;17892;52.080;9.006;2022-08-05T11:36:08;7.37;;;2.80;;
31262;SDS011;17892;52.080;9.006;2022-08-05T11:46:26;4.40;;;1.90;;
31262;SDS011;17892;52.080;9.006;2022-08-05T11:48:53;3.33;;;1.00;;
31262;SDS011;17892;52.080;9.006;2022-08-05T11:51:19;3.80;;;2.03;;
31262;SDS011;17892;52.080;9.006;2022-08-05T11:53:46;3.83;;;1.13;;
31262;SDS011;17892;52.080;9.006;2022-08-05T11:56:13;2.70;;;1.58;;
31262;SDS011;17892;52.080;9.006;2022-08-05T11:58:40;3.30;;;1.58;;
31262;SDS011;17892;52.080;9.006;2022-08-05T12:01:09;3.70;;;1.73;;
31262;SDS011;17892;52.080;9.006;2022-08-05T12:08:45;1.27;;;0.88;;
31262;SDS011;17892;52.080;9.006;2022-08-05T12:11:29;2.00;;;1.20;;
31262;SDS011;17892;52.080;9.006;2022-08-05T12:13:56;2.45;;;1.35;;
31262;SDS011;17892;52.080;9.006;2022-08-05T12:16:27;4.50;;;1.20;;
31262;SDS011;17892;52.080;9.006;2022-08-05T12:18:56;2.10;;;1.08;;
31262;SDS011;17892;52.080;9.006;2022-08-05T12:21:26;2.40;;;1.20;;
31262;SDS011;17892;52.080;9.006;2022-08-05T12:24:02;1.55;;;0.93;;
31262;SDS011;17892;52.080;9.006;2022-08-05T12:28:59;2.00;;;1.00;;
31262;SDS011;17892;52.080;9.006;2022-08-05T12:31:26;4.57;;;1.00;;
31262;SDS011;17892;52.080;9.006;2022-08-05T12:33:52;3.45;;;1.25;;
31262;SDS011;17892;52.080;9.006;2022-08-05T12:36:19;2.80;;;1.30;;
31262;SDS011;17892;52.080;9.006;2022-08-05T12:38:45;1.33;;;0.70;;
31262;SDS011;17892;52.080;9.006;2022-08-05T12:41:12;2.67;;;1.08;;
31262;SDS011;17892;52.080;9.006;2022-08-05T12:43:47;2.38;;;0.90;;
31262;SDS011;17892;52.080;9.006;2022-08-05T12:46:22;2.63;;;1.35;;
31262;SDS011;17892;52.080;9.006;2022-08-05T12:51:26;3.40;;;1.17;;
31262;SDS011;17892;52.080;9.006;2022-08-05T12:54:00;1.55;;;0.80;;
31262;SDS011;17892;52.080;9.006;2022-08-05T12:56:27;2.27;;;1.00;;
31262;SDS011;17892;52.080;9.006;2022-08-05T13:01:43;2.85;;;0.63;;
31262;SDS011;17892;52.080;9.006;2022-08-05T13:04:22;2.22;;;0.85;;
31262;SDS011;17892;52.080;9.006;2022-08-05T13:06:52;0.82;;;0.47;;
31262;SDS011;17892;52.080;9.006;2022-08-05T13:09:22;0.88;;;0.45;;
31262;SDS011;17892;52.080;9.006;2022-08-05T13:11:49;0.85;;;0.50;;
31262;SDS011;17892;52.080;9.006;2022-08-05T13:14:16;2.67;;;0.73;;
31262;SDS011;17892;52.080;9.006;2022-08-05T13:19:19;2.25;;;0.30;;
31262;SDS011;17892;52.080;9.006;2022-08-05T13:21:47;3.05;;;0.43;;
31262;SDS011;17892;52.080;9.006;2022-08-05T13:24:13;1.65;;;0.60;;
31262;SDS011;17892;52.080;9.006;2022-08-05T13:26:40;0.95;;;0.60;;
31262;SDS011;17892;52.080;9.006;2022-08-05T13:29:08;1.58;;;0.73;;
31262;SDS011;17892;52.080;9.006;2022-08-05T13:31:34;1.63;;;0.50;;
31262;SDS011;17892;52.080;9.006;2022-08-05T13:34:00;2.53;;;0.57;;
31262;SDS011;17892;52.080;9.006;2022-08-05T13:36:26;1.10;;;0.75;;
31262;SDS011;17892;52.080;9.006;2022-08-05T13:38:51;1.30;;;0.70;;
31262;SDS011;17892;52.080;9.006;2022-08-05T13:41:17;1.90;;;0.65;;
31262;SDS011;17892;52.080;9.006;2022-08-05T13:43:43;1.65;;;0.68;;
31262;SDS011;17892;52.080;9.006;2022-08-05T13:46:09;1.88;;;0.50;;
31262;SDS011;17892;52.080;9.006;2022-08-05T13:48:35;1.73;;;0.63;;
31262;SDS011;17892;52.080;9.006;2022-08-05T13:51:09;2.47;;;0.80;;
31262;SDS011;17892;52.080;9.006;2022-08-05T13:53:40;1.60;;;0.77;;
31262;SDS011;17892;52.080;9.006;2022-08-05T13:56:07;1.77;;;0.60;;
31262;SDS011;17892;52.080;9.006;2022-08-05T13:58:33;1.90;;;0.88;;
31262;SDS011;17892;52.080;9.006;2022-08-05T14:00:59;3.17;;;0.85;;
31262;SDS011;17892;52.080;9.006;2022-08-05T14:03:25;0.98;;;0.65;;
31262;SDS011;17892;52.080;9.006;2022-08-05T14:05:54;1.10;;;0.50;;
31262;SDS011;17892;52.080;9.006;2022-08-05T14:08:19;3.13;;;0.50;;
31262;SDS011;17892;52.080;9.006;2022-08-05T14:10:45;2.38;;;1.17;;
31262;SDS011;17892;52.080;9.006;2022-08-05T14:13:12;6.13;;;1.33;;
31262;SDS011;17892;52.080;9.006;2022-08-05T14:15:37;1.17;;;0.95;;
31262;SDS011;17892;52.080;9.006;2022-08-05T14:18:03;2.03;;;0.98;;
31262;SDS011;17892;52.080;9.006;2022-08-05T14:20:29;2.25;;;1.13;;
31262;SDS011;17892;52.080;9.006;2022-08-05T14:22:59;1.98;;;0.80;;
31262;SDS011;17892;52.080;9.006;2022-08-05T14:25:25;1.35;;;0.80;;
31262;SDS011;17892;52.080;9.006;2022-08-05T14:27:52;2.97;;;0.80;;
31262;SDS011;17892;52.080;9.006;2022-08-05T14:30:18;1.60;;;1.10;;
31262;SDS011;17892;52.080;9.006;2022-08-05T14:32:44;1.88;;;1.17;;
31262;SDS011;17892;52.080;9.006;2022-08-05T14:35:10;2.92;;;1.15;;
31262;SDS011;17892;52.080;9.006;2022-08-05T14:37:40;1.65;;;1.17;;
31262;SDS011;17892;52.080;9.006;2022-08-05T14:40:06;1.88;;;1.15;;
31262;SDS011;17892;52.080;9.006;2022-08-05T14:42:32;2.97;;;1.25;;
31262;SDS011;17892;52.080;9.006;2022-08-05T14:44:58;3.30;;;1.20;;
31262;SDS011;17892;52.080;9.006;2022-08-05T14:47:24;2.40;;;1.08;;
31262;SDS011;17892;52.080;9.006;2022-08-05T14:49:50;2.47;;;1.13;;
31262;SDS011;17892;52.080;9.006;2022-08-05T14:52:16;1.60;;;1.02;;
31262;SDS011;17892;52.080;9.006;2022-08-05T14:54:41;2.78;;;1.05;;
31262;SDS011;17892;52.080;9.006;2022-08-05T14:57:07;1.73;;;0.70;;
31262;SDS011;17892;52.080;9.006;2022-08-05T14:59:33;1.75;;;0.85;;
31262;SDS011;17892;52.080;9.006;2022-08-05T15:01:59;2.78;;;0.88;;
31262;SDS011;17892;52.080;9.006;2022-08-05T15:04:25;2.25;;;0.98;;
31262;SDS011;17892;52.080;9.006;2022-08-05T15:06:51;1.48;;;0.85;;
31262;SDS011;17892;52.080;9.006;2022-08-05T15:09:20;2.45;;;0.70;;
31262;SDS011;17892;52.080;9.006;2022-08-05T15:11:46;2.58;;;1.33;;
31262;SDS011;17892;52.080;9.006;2022-08-05T15:14:12;2.42;;;1.00;;
31262;SDS011;17892;52.080;9.006;2022-08-05T15:16:38;0.80;;;0.57;;
31262;SDS011;17892;52.080;9.006;2022-08-05T15:19:04;2.85;;;1.20;;
31262;SDS011;17892;52.080;9.006;2022-08-05T15:21:30;1.38;;;0.88;;
31262;SDS011;17892;52.080;9.006;2022-08-05T15:23:56;1.70;;;1.00;;
31262;SDS011;17892;52.080;9.006;2022-08-05T15:26:22;2.53;;;0.85;;
31262;SDS011;17892;52.080;9.006;2022-08-05T15:28:47;2.72;;;1.02;;
31262;SDS011;17892;52.080;9.006;2022-08-05T15:31:13;2.08;;;0.70;;
31262;SDS011;17892;52.080;9.006;2022-08-05T15:33:39;2.20;;;0.70;;
31262;SDS011;17892;52.080;9.006;2022-08-05T15:36:05;1.23;;;0.88;;
31262;SDS011;17892;52.080;9.006;2022-08-05T15:38:31;0.70;;;0.60;;
31262;SDS011;17892;52.080;9.006;2022-08-05T15:40:57;0.80;;;0.50;;
31262;SDS011;17892;52.080;9.006;2022-08-05T15:43:23;1.92;;;0.70;;
31262;SDS011;17892;52.080;9.006;2022-08-05T15:45:49;3.38;;;0.60;;
31262;SDS011;17892;52.080;9.006;2022-08-05T15:48:14;2.38;;;0.85;;
31262;SDS011;17892;52.080;9.006;2022-08-05T15:50:41;2.92;;;0.85;;